sensor_id;sensor_type;location;lat;lon;timestamp;pressure;altitude;pressure_sealevel;temperature;humidity
5954;BME280;3002;42.642;24.812;2023-08-01T00:00:05;96052.28;;;24.28;89.27
5954;BME280;3002;42.642;24.812;2023-08-01T00:02:32;96045.88;;;23.89;92.62
5954;BME280;3002;42.642;24.812;2023-08-01T00:04:58;96045.44;;;23.83;93.89
5954;BME280;3002;42.642;24.812;2023-08-01T00:07:26;96040.44;;;23.99;93.72
5954;BME280;3002;42.642;24.812;2023-08-01T00:09:52;96050.72;;;24.27;89.56
5954;BME280;3002;42.642;24.812;2023-08-01T00:12:18;96036.59;;;24.18;90.16
5954;BME280;3002;42.642;24.812;2023-08-01T00:14:43;96041.25;;;24.11;91.00
5954;BME280;3002;42.642;24.812;2023-08-01T00:17:09;96040.34;;;23.82;92.71
5954;BME280;3002;42.642;24.812;2023-08-01T00:19:35;96041.31;;;23.52;95.92
5954;BME280;3002;42.642;24.812;2023-08-01T00:22:00;96031.28;;;23.70;93.18
5954;BME280;3002;42.642;24.812;2023-08-01T00:24:26;96028.84;;;23.58;93.93
5954;BME280;3002;42.642;24.812;2023-08-01T00:26:51;96046.44;;;23.57;94.56
5954;BME280;3002;42.642;24.812;2023-08-01T00:29:20;96041.03;;;23.68;92.09
5954;BME280;3002;42.642;24.812;2023-08-01T00:31:45;96030.72;;;23.47;93.11
5954;BME280;3002;42.642;24.812;2023-08-01T00:34:11;96034.53;;;23.32;93.46
5954;BME280;3002;42.642;24.812;2023-08-01T00:36:36;96040.28;;;23.16;94.48
5954;BME280;3002;42.642;24.812;2023-08-01T00:39:02;96025.72;;;23.05;92.97
5954;BME280;3002;42.642;24.812;2023-08-01T00:41:27;96032.28;;;22.96;94.48
5954;BME280;3002;42.642;24.812;2023-08-01T00:43:53;96037.06;;;23.07;93.57
5954;BME280;3002;42.642;24.812;2023-08-01T00:46:19;96028.06;;;23.06;92.90
5954;BME280;3002;42.642;24.812;2023-08-01T00:48:44;96023.28;;;22.96;93.45
5954;BME280;3002;42.642;24.812;2023-08-01T00:51:11;96023.63;;;22.91;92.18
5954;BME280;3002;42.642;24.812;2023-08-01T00:53:37;96000.59;;;22.88;91.86
5954;BME280;3002;42.642;24.812;2023-08-01T00:56:03;95990.59;;;22.66;91.89
5954;BME280;3002;42.642;24.812;2023-08-01T00:58:29;95991.59;;;22.47;94.19
5954;BME280;3002;42.642;24.812;2023-08-01T01:00:54;96006.06;;;22.88;93.27
5954;BME280;3002;42.642;24.812;2023-08-01T01:03:22;95996.81;;;23.07;91.70
5954;BME280;3002;42.642;24.812;2023-08-01T01:06:26;96006.75;;;23.30;90.76
5954;BME280;3002;42.642;24.812;2023-08-01T01:08:53;96002.44;;;23.25;88.43
5954;BME280;3002;42.642;24.812;2023-08-01T01:11:20;96004.06;;;23.33;85.71
5954;BME280;3002;42.642;24.812;2023-08-01T01:13:46;96008.81;;;23.43;83.62
5954;BME280;3002;42.642;24.812;2023-08-01T01:16:13;95997.75;;;23.26;83.30
5954;BME280;3002;42.642;24.812;2023-08-01T01:18:38;96003.22;;;23.26;85.61
5954;BME280;3002;42.642;24.812;2023-08-01T01:21:04;95989.31;;;23.52;77.88
5954;BME280;3002;42.642;24.812;2023-08-01T01:23:31;95987.78;;;23.58;82.92
5954;BME280;3002;42.642;24.812;2023-08-01T01:25:57;96004.06;;;24.10;80.58
5954;BME280;3002;42.642;24.812;2023-08-01T01:28:24;96010.72;;;24.05;80.98
5954;BME280;3002;42.642;24.812;2023-08-01T01:30:51;96002.47;;;23.98;80.71
5954;BME280;3002;42.642;24.812;2023-08-01T01:33:18;95977.97;;;23.54;82.21
5954;BME280;3002;42.642;24.812;2023-08-01T01:35:44;96005.38;;;23.61;82.08
5954;BME280;3002;42.642;24.812;2023-08-01T01:38:09;95991.13;;;23.30;84.45
5954;BME280;3002;42.642;24.812;2023-08-01T01:40:35;95991.56;;;23.36;85.65
5954;BME280;3002;42.642;24.812;2023-08-01T01:43:01;95974.56;;;23.09;87.36
5954;BME280;3002;42.642;24.812;2023-08-01T01:45:27;95988.75;;;23.21;88.23
5954;BME280;3002;42.642;24.812;2023-08-01T01:47:52;95993.03;;;23.22;88.38
5954;BME280;3002;42.642;24.812;2023-08-01T01:50:18;95983.63;;;23.20;85.48
5954;BME280;3002;42.642;24.812;2023-08-01T01:52:44;95985.16;;;23.14;77.94
5954;BME280;3002;42.642;24.812;2023-08-01T01:55:09;95992.41;;;23.50;74.99
5954;BME280;3002;42.642;24.812;2023-08-01T01:57:35;95986.84;;;23.33;75.55
5954;BME280;3002;42.642;24.812;2023-08-01T02:00:05;95976.13;;;23.68;74.53
5954;BME280;3002;42.642;24.812;2023-08-01T02:02:31;95983.59;;;23.75;83.15
5954;BME280;3002;42.642;24.812;2023-08-01T02:04:56;95990.28;;;23.81;80.34
5954;BME280;3002;42.642;24.812;2023-08-01T02:07:22;95982.34;;;23.62;78.91
5954;BME280;3002;42.642;24.812;2023-08-01T02:09:47;95983.22;;;23.76;78.60
5954;BME280;3002;42.642;24.812;2023-08-01T02:12:13;95982.00;;;23.74;80.73
5954;BME280;3002;42.642;24.812;2023-08-01T02:14:41;95967.03;;;23.54;81.29
5954;BME280;3002;42.642;24.812;2023-08-01T02:17:07;95979.31;;;23.85;74.38
5954;BME280;3002;42.642;24.812;2023-08-01T02:19:33;95973.44;;;23.75;70.49
5954;BME280;3002;42.642;24.812;2023-08-01T02:21:58;95982.97;;;24.14;72.05
5954;BME280;3002;42.642;24.812;2023-08-01T02:24:24;95984.16;;;24.27;80.67
5954;BME280;3002;42.642;24.812;2023-08-01T02:26:50;95991.66;;;24.41;79.75
5954;BME280;3002;42.642;24.812;2023-08-01T02:29:16;95967.25;;;24.03;80.75
5954;BME280;3002;42.642;24.812;2023-08-01T02:31:41;95995.03;;;23.98;81.29
5954;BME280;3002;42.642;24.812;2023-08-01T02:34:07;95988.78;;;24.01;79.78
5954;BME280;3002;42.642;24.812;2023-08-01T02:36:32;95972.59;;;23.68;83.79
5954;BME280;3002;42.642;24.812;2023-08-01T02:38:58;95976.81;;;23.55;86.58
5954;BME280;3002;42.642;24.812;2023-08-01T02:41:23;95981.16;;;23.63;85.72
5954;BME280;3002;42.642;24.812;2023-08-01T02:43:49;95983.78;;;23.45;87.57
5954;BME280;3002;42.642;24.812;2023-08-01T02:46:14;95984.72;;;23.67;89.45
5954;BME280;3002;42.642;24.812;2023-08-01T02:48:40;95975.28;;;23.61;89.34
5954;BME280;3002;42.642;24.812;2023-08-01T02:51:06;95982.53;;;23.28;91.61
5954;BME280;3002;42.642;24.812;2023-08-01T02:53:34;95990.50;;;23.51;90.12
5954;BME280;3002;42.642;24.812;2023-08-01T02:56:00;95970.84;;;23.38;90.99
5954;BME280;3002;42.642;24.812;2023-08-01T02:58:25;95980.19;;;23.30;90.68
5954;BME280;3002;42.642;24.812;2023-08-01T03:00:51;95997.50;;;23.48;90.46
5954;BME280;3002;42.642;24.812;2023-08-01T03:03:16;95990.00;;;23.35;92.03
5954;BME280;3002;42.642;24.812;2023-08-01T03:05:42;95978.03;;;22.99;94.13
5954;BME280;3002;42.642;24.812;2023-08-01T03:08:07;95989.44;;;23.15;92.47
5954;BME280;3002;42.642;24.812;2023-08-01T03:10:33;95995.41;;;23.28;90.45
5954;BME280;3002;42.642;24.812;2023-08-01T03:12:58;96002.72;;;23.09;92.72
5954;BME280;3002;42.642;24.812;2023-08-01T03:15:24;96008.69;;;23.26;92.11
5954;BME280;3002;42.642;24.812;2023-08-01T03:17:49;95995.16;;;22.95;79.64
5954;BME280;3002;42.642;24.812;2023-08-01T03:20:17;96006.03;;;22.48;84.06
5954;BME280;3002;42.642;24.812;2023-08-01T03:22:43;95996.47;;;22.68;79.39
5954;BME280;3002;42.642;24.812;2023-08-01T03:25:08;96000.00;;;22.68;72.99
5954;BME280;3002;42.642;24.812;2023-08-01T03:27:34;96015.63;;;23.12;72.23
5954;BME280;3002;42.642;24.812;2023-08-01T03:30:00;96014.06;;;23.15;76.97
5954;BME280;3002;42.642;24.812;2023-08-01T03:32:25;96024.22;;;23.14;76.27
5954;BME280;3002;42.642;24.812;2023-08-01T03:34:51;96018.63;;;22.56;81.25
5954;BME280;3002;42.642;24.812;2023-08-01T03:37:17;96029.97;;;22.58;83.86
5954;BME280;3002;42.642;24.812;2023-08-01T03:39:43;96027.94;;;22.88;81.75
5954;BME280;3002;42.642;24.812;2023-08-01T03:42:09;96038.44;;;22.86;80.43
5954;BME280;3002;42.642;24.812;2023-08-01T03:44:34;96029.44;;;22.86;80.24
5954;BME280;3002;42.642;24.812;2023-08-01T03:47:00;96023.25;;;22.89;81.82
5954;BME280;3002;42.642;24.812;2023-08-01T03:49:25;96029.09;;;22.91;80.39
5954;BME280;3002;42.642;24.812;2023-08-01T03:51:51;96023.31;;;22.59;82.99
5954;BME280;3002;42.642;24.812;2023-08-01T03:54:16;96032.41;;;22.70;82.18
5954;BME280;3002;42.642;24.812;2023-08-01T03:56:42;96024.72;;;22.79;81.87
5954;BME280;3002;42.642;24.812;2023-08-01T03:59:10;96032.03;;;22.71;83.46
5954;BME280;3002;42.642;24.812;2023-08-01T04:01:35;96036.78;;;22.78;83.16
5954;BME280;3002;42.642;24.812;2023-08-01T04:04:01;96017.69;;;22.82;82.30
5954;BME280;3002;42.642;24.812;2023-08-01T04:06:26;96038.97;;;23.03;82.32
5954;BME280;3002;42.642;24.812;2023-08-01T04:08:52;96020.28;;;23.08;80.71
5954;BME280;3002;42.642;24.812;2023-08-01T04:11:17;96039.34;;;22.98;83.06
5954;BME280;3002;42.642;24.812;2023-08-01T04:13:43;96033.63;;;23.17;81.70
5954;BME280;3002;42.642;24.812;2023-08-01T04:16:08;96031.03;;;23.35;80.61
5954;BME280;3002;42.642;24.812;2023-08-01T04:18:34;96039.50;;;23.15;82.05
5954;BME280;3002;42.642;24.812;2023-08-01T04:20:59;96029.78;;;23.21;80.36
5954;BME280;3002;42.642;24.812;2023-08-01T04:23:25;96029.97;;;22.99;82.12
5954;BME280;3002;42.642;24.812;2023-08-01T04:25:50;96024.56;;;23.06;80.90
5954;BME280;3002;42.642;24.812;2023-08-01T04:28:16;96046.16;;;23.69;78.98
5954;BME280;3002;42.642;24.812;2023-08-01T04:30:41;96039.25;;;23.93;77.84
5954;BME280;3002;42.642;24.812;2023-08-01T04:33:06;96033.84;;;24.22;74.83
5954;BME280;3002;42.642;24.812;2023-08-01T04:35:32;96014.78;;;24.43;73.90
5954;BME280;3002;42.642;24.812;2023-08-01T04:37:57;96042.25;;;24.82;73.00
5954;BME280;3002;42.642;24.812;2023-08-01T04:40:23;96035.63;;;24.83;73.79
5954;BME280;3002;42.642;24.812;2023-08-01T04:42:48;96048.94;;;24.92;72.28
5954;BME280;3002;42.642;24.812;2023-08-01T04:45:14;96045.47;;;25.31;69.62
5954;BME280;3002;42.642;24.812;2023-08-01T04:47:39;96039.53;;;25.00;72.58
5954;BME280;3002;42.642;24.812;2023-08-01T04:50:05;96047.00;;;25.03;73.50
5954;BME280;3002;42.642;24.812;2023-08-01T04:52:31;96045.88;;;25.26;72.86
5954;BME280;3002;42.642;24.812;2023-08-01T04:54:56;96046.22;;;25.74;71.27
5954;BME280;3002;42.642;24.812;2023-08-01T04:57:22;96034.00;;;25.93;68.40
5954;BME280;3002;42.642;24.812;2023-08-01T04:59:47;96052.81;;;26.05;68.03
5954;BME280;3002;42.642;24.812;2023-08-01T05:02:12;96058.53;;;26.50;64.50
5954;BME280;3002;42.642;24.812;2023-08-01T05:04:38;96064.69;;;26.68;63.22
5954;BME280;3002;42.642;24.812;2023-08-01T05:07:04;96057.88;;;26.94;60.86
5954;BME280;3002;42.642;24.812;2023-08-01T05:09:32;96055.97;;;27.40;58.21
5954;BME280;3002;42.642;24.812;2023-08-01T05:11:57;96062.72;;;27.32;58.04
5954;BME280;3002;42.642;24.812;2023-08-01T05:14:23;96055.63;;;26.79;59.79
5954;BME280;3002;42.642;24.812;2023-08-01T05:16:48;96060.63;;;26.94;59.49
5954;BME280;3002;42.642;24.812;2023-08-01T05:19:13;96064.47;;;27.11;59.12
5954;BME280;3002;42.642;24.812;2023-08-01T05:21:39;96061.00;;;27.93;57.53
5954;BME280;3002;42.642;24.812;2023-08-01T05:24:04;96066.06;;;27.98;56.95
5954;BME280;3002;42.642;24.812;2023-08-01T05:26:30;96068.03;;;27.98;56.08
5954;BME280;3002;42.642;24.812;2023-08-01T05:28:55;96074.72;;;28.35;55.32
5954;BME280;3002;42.642;24.812;2023-08-01T05:31:21;96072.50;;;28.84;52.91
5954;BME280;3002;42.642;24.812;2023-08-01T05:33:46;96073.94;;;28.95;51.79
5954;BME280;3002;42.642;24.812;2023-08-01T05:36:11;96071.16;;;28.99;52.29
5954;BME280;3002;42.642;24.812;2023-08-01T05:38:37;96079.22;;;29.64;51.02
5954;BME280;3002;42.642;24.812;2023-08-01T05:41:02;96071.53;;;29.75;49.80
5954;BME280;3002;42.642;24.812;2023-08-01T05:43:28;96063.59;;;29.77;50.01
5954;BME280;3002;42.642;24.812;2023-08-01T05:45:53;96067.28;;;30.10;47.46
5954;BME280;3002;42.642;24.812;2023-08-01T05:48:19;96070.34;;;29.52;48.68
5954;BME280;3002;42.642;24.812;2023-08-01T05:50:44;96059.28;;;29.52;49.38
5954;BME280;3002;42.642;24.812;2023-08-01T05:53:10;96068.69;;;29.78;49.09
5954;BME280;3002;42.642;24.812;2023-08-01T05:55:36;96073.94;;;29.22;50.67
5954;BME280;3002;42.642;24.812;2023-08-01T05:58:01;96056.63;;;30.12;49.91
5954;BME280;3002;42.642;24.812;2023-08-01T06:00:27;96064.38;;;29.54;51.45
5954;BME280;3002;42.642;24.812;2023-08-01T06:02:52;96072.22;;;30.22;48.88
5954;BME280;3002;42.642;24.812;2023-08-01T06:05:18;96066.63;;;30.26;48.95
5954;BME280;3002;42.642;24.812;2023-08-01T06:07:43;96060.16;;;28.95;50.69
5954;BME280;3002;42.642;24.812;2023-08-01T06:10:10;96051.31;;;28.77;51.87
5954;BME280;3002;42.642;24.812;2023-08-01T06:12:35;96051.34;;;29.54;50.22
5954;BME280;3002;42.642;24.812;2023-08-01T06:15:01;96058.44;;;30.58;47.53
5954;BME280;3002;42.642;24.812;2023-08-01T06:17:27;96071.13;;;30.76;47.27
5954;BME280;3002;42.642;24.812;2023-08-01T06:19:52;96061.94;;;30.99;47.22
5954;BME280;3002;42.642;24.812;2023-08-01T06:22:20;96064.72;;;31.15;46.97
5954;BME280;3002;42.642;24.812;2023-08-01T06:24:45;96062.41;;;31.13;47.16
5954;BME280;3002;42.642;24.812;2023-08-01T06:27:10;96057.06;;;32.01;44.30
5954;BME280;3002;42.642;24.812;2023-08-01T06:29:36;96057.94;;;31.00;46.34
5954;BME280;3002;42.642;24.812;2023-08-01T06:32:03;96049.75;;;31.61;45.40
5954;BME280;3002;42.642;24.812;2023-08-01T06:34:28;96057.41;;;32.03;44.77
5954;BME280;3002;42.642;24.812;2023-08-01T06:36:54;96057.59;;;31.95;44.99
5954;BME280;3002;42.642;24.812;2023-08-01T06:39:19;96053.50;;;31.38;44.70
5954;BME280;3002;42.642;24.812;2023-08-01T06:41:45;96060.56;;;31.07;46.45
5954;BME280;3002;42.642;24.812;2023-08-01T06:44:11;96055.13;;;31.68;45.64
5954;BME280;3002;42.642;24.812;2023-08-01T06:46:36;96050.16;;;32.21;44.40
5954;BME280;3002;42.642;24.812;2023-08-01T06:49:01;96046.66;;;32.88;42.39
5954;BME280;3002;42.642;24.812;2023-08-01T06:51:27;96044.50;;;32.80;42.05
5954;BME280;3002;42.642;24.812;2023-08-01T06:53:52;96047.53;;;32.98;41.33
5954;BME280;3002;42.642;24.812;2023-08-01T06:56:18;96048.97;;;32.77;41.87
5954;BME280;3002;42.642;24.812;2023-08-01T06:58:43;96045.41;;;32.64;41.92
5954;BME280;3002;42.642;24.812;2023-08-01T07:01:09;96052.03;;;32.54;42.86
5954;BME280;3002;42.642;24.812;2023-08-01T07:03:34;96037.19;;;33.24;41.95
5954;BME280;3002;42.642;24.812;2023-08-01T07:06:00;96048.78;;;33.70;40.57
5954;BME280;3002;42.642;24.812;2023-08-01T07:08:26;96031.31;;;34.70;38.62
5954;BME280;3002;42.642;24.812;2023-08-01T07:10:51;96013.81;;;34.16;38.62
5954;BME280;3002;42.642;24.812;2023-08-01T07:13:16;96028.44;;;34.51;38.20
5954;BME280;3002;42.642;24.812;2023-08-01T07:15:44;96022.41;;;34.31;38.72
5954;BME280;3002;42.642;24.812;2023-08-01T07:18:10;96026.06;;;33.84;39.02
5954;BME280;3002;42.642;24.812;2023-08-01T07:20:35;96044.38;;;33.60;39.69
5954;BME280;3002;42.642;24.812;2023-08-01T07:23:01;96029.94;;;33.39;39.76
5954;BME280;3002;42.642;24.812;2023-08-01T07:25:26;96037.50;;;33.51;39.49
5954;BME280;3002;42.642;24.812;2023-08-01T07:27:52;96046.28;;;33.97;38.94
5954;BME280;3002;42.642;24.812;2023-08-01T07:30:17;96042.75;;;34.19;38.32
5954;BME280;3002;42.642;24.812;2023-08-01T07:32:43;96037.50;;;34.21;39.41
5954;BME280;3002;42.642;24.812;2023-08-01T07:35:08;96037.50;;;34.96;38.19
5954;BME280;3002;42.642;24.812;2023-08-01T07:37:34;96021.28;;;35.03;37.64
5954;BME280;3002;42.642;24.812;2023-08-01T07:39:59;96035.88;;;35.26;37.34
5954;BME280;3002;42.642;24.812;2023-08-01T07:42:25;96025.94;;;34.84;36.83
5954;BME280;3002;42.642;24.812;2023-08-01T07:44:50;96012.13;;;34.19;37.79
5954;BME280;3002;42.642;24.812;2023-08-01T07:47:16;96022.97;;;32.96;40.02
5954;BME280;3002;42.642;24.812;2023-08-01T07:49:41;96010.78;;;34.01;38.67
5954;BME280;3002;42.642;24.812;2023-08-01T07:52:07;96024.75;;;34.11;38.99
5954;BME280;3002;42.642;24.812;2023-08-01T07:54:32;96023.56;;;34.43;38.57
5954;BME280;3002;42.642;24.812;2023-08-01T07:56:58;96025.34;;;35.21;38.70
5954;BME280;3002;42.642;24.812;2023-08-01T07:59:24;96009.13;;;35.37;37.24
5954;BME280;3002;42.642;24.812;2023-08-01T08:01:49;96004.84;;;35.73;35.57
5954;BME280;3002;42.642;24.812;2023-08-01T08:04:15;96026.22;;;34.99;37.42
5954;BME280;3002;42.642;24.812;2023-08-01T08:06:40;96014.19;;;33.23;40.12
5954;BME280;3002;42.642;24.812;2023-08-01T08:09:06;96017.94;;;34.33;38.33
5954;BME280;3002;42.642;24.812;2023-08-01T08:11:31;96031.03;;;35.57;36.81
5954;BME280;3002;42.642;24.812;2023-08-01T08:13:58;96004.09;;;34.43;37.79
5954;BME280;3002;42.642;24.812;2023-08-01T08:16:24;96016.50;;;34.73;38.12
5954;BME280;3002;42.642;24.812;2023-08-01T08:18:49;95995.44;;;35.03;36.34
5954;BME280;3002;42.642;24.812;2023-08-01T08:21:15;96020.22;;;34.04;38.26
5954;BME280;3002;42.642;24.812;2023-08-01T08:23:40;96006.28;;;33.22;39.40
5954;BME280;3002;42.642;24.812;2023-08-01T08:26:06;96000.44;;;33.89;38.20
5954;BME280;3002;42.642;24.812;2023-08-01T08:28:33;96006.38;;;33.78;39.01
5954;BME280;3002;42.642;24.812;2023-08-01T08:30:59;96006.69;;;35.49;36.61
5954;BME280;3002;42.642;24.812;2023-08-01T08:33:25;95994.47;;;34.66;36.76
5954;BME280;3002;42.642;24.812;2023-08-01T08:35:50;96008.28;;;35.09;36.94
5954;BME280;3002;42.642;24.812;2023-08-01T08:38:17;95994.63;;;35.61;34.58
5954;BME280;3002;42.642;24.812;2023-08-01T08:40:52;96007.06;;;35.97;34.21
5954;BME280;3002;42.642;24.812;2023-08-01T08:43:20;96000.03;;;36.47;34.16
5954;BME280;3002;42.642;24.812;2023-08-01T08:45:48;95981.72;;;36.28;34.43
5954;BME280;3002;42.642;24.812;2023-08-01T08:48:18;96004.09;;;36.79;33.21
5954;BME280;3002;42.642;24.812;2023-08-01T08:50:45;95998.72;;;34.26;36.55
5954;BME280;3002;42.642;24.812;2023-08-01T08:53:11;95989.44;;;34.29;36.85
5954;BME280;3002;42.642;24.812;2023-08-01T08:55:41;95980.47;;;34.03;37.18
5954;BME280;3002;42.642;24.812;2023-08-01T08:58:07;95981.09;;;35.41;34.47
5954;BME280;3002;42.642;24.812;2023-08-01T09:00:35;95992.09;;;36.55;33.62
5954;BME280;3002;42.642;24.812;2023-08-01T09:03:01;95979.59;;;35.58;33.72
5954;BME280;3002;42.642;24.812;2023-08-01T09:05:27;95974.06;;;36.56;31.92
5954;BME280;3002;42.642;24.812;2023-08-01T09:08:02;95963.44;;;37.11;30.64
5954;BME280;3002;42.642;24.812;2023-08-01T09:10:31;95975.97;;;36.92;30.86
5954;BME280;3002;42.642;24.812;2023-08-01T09:12:57;95975.53;;;34.92;32.40
5954;BME280;3002;42.642;24.812;2023-08-01T09:15:23;95967.03;;;36.09;31.25
5954;BME280;3002;42.642;24.812;2023-08-01T09:17:51;95969.38;;;37.04;30.11
5954;BME280;3002;42.642;24.812;2023-08-01T09:20:17;95967.53;;;37.34;29.37
5954;BME280;3002;42.642;24.812;2023-08-01T09:22:46;95970.91;;;37.14;29.31
5954;BME280;3002;42.642;24.812;2023-08-01T09:25:13;95971.78;;;36.45;29.53
5954;BME280;3002;42.642;24.812;2023-08-01T09:27:38;95959.88;;;35.44;31.23
5954;BME280;3002;42.642;24.812;2023-08-01T09:30:11;95971.31;;;36.37;30.87
5954;BME280;3002;42.642;24.812;2023-08-01T09:32:56;95966.63;;;35.06;30.69
5954;BME280;3002;42.642;24.812;2023-08-01T09:35:22;95967.06;;;35.63;30.60
5954;BME280;3002;42.642;24.812;2023-08-01T09:37:49;95949.59;;;36.84;28.91
5954;BME280;3002;42.642;24.812;2023-08-01T09:40:15;95947.78;;;36.29;29.30
5954;BME280;3002;42.642;24.812;2023-08-01T09:42:42;95960.50;;;37.39;27.48
5954;BME280;3002;42.642;24.812;2023-08-01T09:47:37;95943.28;;;36.13;29.18
5954;BME280;3002;42.642;24.812;2023-08-01T09:50:03;95950.88;;;36.74;29.40
5954;BME280;3002;42.642;24.812;2023-08-01T09:52:32;95935.00;;;36.47;29.18
5954;BME280;3002;42.642;24.812;2023-08-01T10:18:28;95921.84;;;37.52;28.00
5954;BME280;3002;42.642;24.812;2023-08-01T10:20:55;95916.44;;;37.48;28.50
5954;BME280;3002;42.642;24.812;2023-08-01T10:23:23;95891.88;;;37.29;27.48
5954;BME280;3002;42.642;24.812;2023-08-01T10:25:49;95906.41;;;38.25;25.85
5954;BME280;3002;42.642;24.812;2023-08-01T10:28:15;95907.47;;;38.42;26.19
5954;BME280;3002;42.642;24.812;2023-08-01T10:30:40;95901.25;;;38.83;26.44
5954;BME280;3002;42.642;24.812;2023-08-01T10:33:06;95894.00;;;37.34;27.10
5954;BME280;3002;42.642;24.812;2023-08-01T10:35:39;95898.47;;;37.79;26.52
5954;BME280;3002;42.642;24.812;2023-08-01T10:38:11;95901.13;;;39.12;24.89
5954;BME280;3002;42.642;24.812;2023-08-01T10:40:41;95887.69;;;37.87;25.17
5954;BME280;3002;42.642;24.812;2023-08-01T10:43:22;95872.13;;;38.00;26.09
5954;BME280;3002;42.642;24.812;2023-08-01T10:45:48;95880.44;;;37.17;27.15
5954;BME280;3002;42.642;24.812;2023-08-01T10:48:25;95863.06;;;38.70;25.62
5954;BME280;3002;42.642;24.812;2023-08-01T10:50:57;95856.38;;;38.68;25.68
5954;BME280;3002;42.642;24.812;2023-08-01T10:53:23;95872.34;;;39.58;25.79
5954;BME280;3002;42.642;24.812;2023-08-01T10:55:48;95857.63;;;39.63;24.71
5954;BME280;3002;42.642;24.812;2023-08-01T10:58:15;95856.63;;;38.49;25.96
5954;BME280;3002;42.642;24.812;2023-08-01T11:00:43;95854.97;;;38.72;25.51
5954;BME280;3002;42.642;24.812;2023-08-01T11:03:08;95859.47;;;39.66;25.26
5954;BME280;3002;42.642;24.812;2023-08-01T11:05:34;95844.25;;;39.78;23.91
5954;BME280;3002;42.642;24.812;2023-08-01T11:08:03;95845.75;;;38.37;25.80
5954;BME280;3002;42.642;24.812;2023-08-01T11:10:31;95850.03;;;38.67;25.90
5954;BME280;3002;42.642;24.812;2023-08-01T11:12:58;95858.28;;;39.12;25.50
5954;BME280;3002;42.642;24.812;2023-08-01T11:15:24;95827.66;;;38.52;26.34
5954;BME280;3002;42.642;24.812;2023-08-01T11:17:52;95829.44;;;37.76;26.41
5954;BME280;3002;42.642;24.812;2023-08-01T11:20:19;95803.69;;;38.16;26.00
5954;BME280;3002;42.642;24.812;2023-08-01T11:22:57;95841.22;;;38.74;24.94
5954;BME280;3002;42.642;24.812;2023-08-01T11:25:33;95823.41;;;38.57;25.01
5954;BME280;3002;42.642;24.812;2023-08-01T11:28:10;95835.03;;;40.35;25.45
5954;BME280;3002;42.642;24.812;2023-08-01T11:30:36;95814.69;;;40.46;23.95
5954;BME280;3002;42.642;24.812;2023-08-01T11:33:19;95817.41;;;40.35;22.89
5954;BME280;3002;42.642;24.812;2023-08-01T11:35:55;95822.56;;;40.05;23.63
5954;BME280;3002;42.642;24.812;2023-08-01T11:38:32;95813.66;;;40.86;22.99
5954;BME280;3002;42.642;24.812;2023-08-01T11:41:03;95813.41;;;38.91;25.25
5954;BME280;3002;42.642;24.812;2023-08-01T11:43:41;95815.56;;;38.11;25.60
5954;BME280;3002;42.642;24.812;2023-08-01T11:46:13;95811.81;;;38.85;25.46
5954;BME280;3002;42.642;24.812;2023-08-01T11:48:38;95807.91;;;39.17;24.19
5954;BME280;3002;42.642;24.812;2023-08-01T11:51:04;95811.75;;;40.29;23.74
5954;BME280;3002;42.642;24.812;2023-08-01T11:53:30;95801.38;;;41.55;23.30
5954;BME280;3002;42.642;24.812;2023-08-01T11:55:57;95795.41;;;38.77;25.42
5954;BME280;3002;42.642;24.812;2023-08-01T11:58:30;95787.88;;;39.30;24.75
5954;BME280;3002;42.642;24.812;2023-08-01T12:01:07;95792.72;;;39.29;25.45
5954;BME280;3002;42.642;24.812;2023-08-01T12:03:51;95791.69;;;39.79;26.53
5954;BME280;3002;42.642;24.812;2023-08-01T12:06:19;95789.66;;;38.16;26.12
5954;BME280;3002;42.642;24.812;2023-08-01T12:08:46;95782.66;;;39.95;24.36
5954;BME280;3002;42.642;24.812;2023-08-01T12:11:25;95785.13;;;39.87;25.00
5954;BME280;3002;42.642;24.812;2023-08-01T12:16:26;95769.94;;;41.95;23.57
5954;BME280;3002;42.642;24.812;2023-08-01T12:18:52;95767.88;;;42.35;22.56
5954;BME280;3002;42.642;24.812;2023-08-01T12:21:18;95773.13;;;42.84;22.41
5954;BME280;3002;42.642;24.812;2023-08-01T12:23:43;95767.88;;;41.79;23.15
5954;BME280;3002;42.642;24.812;2023-08-01T12:26:09;95773.97;;;41.44;23.15
5954;BME280;3002;42.642;24.812;2023-08-01T12:28:35;95772.13;;;41.24;22.94
5954;BME280;3002;42.642;24.812;2023-08-01T12:31:01;95765.94;;;41.14;22.94
5954;BME280;3002;42.642;24.812;2023-08-01T12:33:36;95770.03;;;40.17;24.33
5954;BME280;3002;42.642;24.812;2023-08-01T12:36:02;95753.84;;;40.37;24.39
5954;BME280;3002;42.642;24.812;2023-08-01T12:38:28;95748.94;;;40.75;23.39
5954;BME280;3002;42.642;24.812;2023-08-01T12:40:54;95759.91;;;40.73;23.55
5954;BME280;3002;42.642;24.812;2023-08-01T12:43:19;95758.19;;;41.75;22.52
5954;BME280;3002;42.642;24.812;2023-08-01T12:45:46;95764.28;;;40.00;23.51
5954;BME280;3002;42.642;24.812;2023-08-01T12:48:13;95736.91;;;39.89;24.53
5954;BME280;3002;42.642;24.812;2023-08-01T12:50:43;95747.69;;;40.33;23.77
5954;BME280;3002;42.642;24.812;2023-08-01T12:53:09;95747.22;;;40.03;24.57
5954;BME280;3002;42.642;24.812;2023-08-01T12:55:35;95734.88;;;39.90;24.42
5954;BME280;3002;42.642;24.812;2023-08-01T12:58:01;95736.06;;;39.77;24.97
5954;BME280;3002;42.642;24.812;2023-08-01T13:00:26;95731.38;;;39.43;25.27
5954;BME280;3002;42.642;24.812;2023-08-01T13:02:53;95697.63;;;40.32;25.72
5954;BME280;3002;42.642;24.812;2023-08-01T13:05:35;95722.81;;;39.83;24.72
5954;BME280;3002;42.642;24.812;2023-08-01T13:08:01;95715.19;;;39.06;25.64
5954;BME280;3002;42.642;24.812;2023-08-01T13:10:30;95710.19;;;37.64;26.86
5954;BME280;3002;42.642;24.812;2023-08-01T13:12:55;95713.75;;;37.05;27.67
5954;BME280;3002;42.642;24.812;2023-08-01T13:15:20;95713.84;;;37.11;27.29
5954;BME280;3002;42.642;24.812;2023-08-01T13:17:46;95706.44;;;37.08;27.78
5954;BME280;3002;42.642;24.812;2023-08-01T13:20:11;95713.31;;;37.51;27.28
5954;BME280;3002;42.642;24.812;2023-08-01T13:22:37;95715.16;;;38.04;27.95
5954;BME280;3002;42.642;24.812;2023-08-01T13:25:03;95714.25;;;37.63;27.25
5954;BME280;3002;42.642;24.812;2023-08-01T13:27:29;95703.47;;;37.41;27.15
5954;BME280;3002;42.642;24.812;2023-08-01T13:29:54;95697.09;;;37.85;27.95
5954;BME280;3002;42.642;24.812;2023-08-01T13:32:20;95699.06;;;38.19;27.57
5954;BME280;3002;42.642;24.812;2023-08-01T13:34:45;95679.31;;;36.99;28.01